sensor_id;sensor_type;location;lat;lon;timestamp;P1;durP1;ratioP1;P2;durP2;ratioP2
72115;SDS011;59991;52.140;5.428;2022-08-19T00:00:30;5.00;;;3.72;;
72115;SDS011;59991;52.140;5.428;2022-08-19T00:01:02;6.32;;;4.20;;
72115;SDS011;59991;52.140;5.428;2022-08-19T00:01:35;4.50;;;4.10;;
72115;SDS011;59991;52.140;5.428;2022-08-19T00:02:08;4.72;;;4.43;;
72115;SDS011;59991;52.140;5.428;2022-08-19T00:02:40;4.78;;;4.30;;
72115;SDS011;59991;52.140;5.428;2022-08-19T00:03:20;4.07;;;3.75;;
72115;SDS011;59991;52.140;5.428;2022-08-19T00:03:51;4.70;;;4.40;;
72115;SDS011;59991;52.140;5.428;2022-08-19T00:04:25;5.30;;;3.80;;
72115;SDS011;59991;52.140;5.428;2022-08-19T00:05:02;5.13;;;3.60;;
72115;SDS011;59991;52.140;5.428;2022-08-19T00:05:35;5.47;;;3.72;;
72115;SDS011;59991;52.140;5.428;2022-08-19T00:06:07;4.55;;;4.15;;
72115;SDS011;59991;52.140;5.428;2022-08-19T00:06:39;6.18;;;4.20;;
72115;SDS011;59991;52.140;5.428;2022-08-19T00:07:31;6.93;;;4.40;;
72115;SDS011;59991;52.140;5.428;2022-08-19T00:08:02;3.83;;;3.53;;
72115;SDS011;59991;52.140;5.428;2022-08-19T00:08:34;3.92;;;3.63;;
72115;SDS011;59991;52.140;5.428;2022-08-19T00:09:13;4.18;;;3.78;;
72115;SDS011;59991;52.140;5.428;2022-08-19T00:09:47;4.78;;;3.88;;
72115;SDS011;59991;52.140;5.428;2022-08-19T00:10:36;4.45;;;4.03;;
72115;SDS011;59991;52.140;5.428;2022-08-19T00:11:08;5.50;;;3.97;;
72115;SDS011;59991;52.140;5.428;2022-08-19T00:11:48;3.83;;;3.53;;
72115;SDS011;59991;52.140;5.428;2022-08-19T00:12:20;4.45;;;4.05;;
72115;SDS011;59991;52.140;5.428;2022-08-19T00:12:52;4.10;;;3.80;;
72115;SDS011;59991;52.140;5.428;2022-08-19T00:13:42;4.93;;;4.50;;
72115;SDS011;59991;52.140;5.428;2022-08-19T00:14:14;6.43;;;4.22;;
72115;SDS011;59991;52.140;5.428;2022-08-19T00:14:47;4.40;;;4.00;;
72115;SDS011;59991;52.140;5.428;2022-08-19T00:15:19;4.00;;;3.67;;
72115;SDS011;59991;52.140;5.428;2022-08-19T00:15:52;5.05;;;4.55;;
72115;SDS011;59991;52.140;5.428;2022-08-19T00:17:00;4.47;;;4.07;;
72115;SDS011;59991;52.140;5.428;2022-08-19T00:17:32;4.03;;;3.63;;
72115;SDS011;59991;52.140;5.428;2022-08-19T00:18:03;6.68;;;4.35;;
72115;SDS011;59991;52.140;5.428;2022-08-19T00:18:35;4.47;;;4.07;;
72115;SDS011;59991;52.140;5.428;2022-08-19T00:19:06;4.70;;;4.25;;
72115;SDS011;59991;52.140;5.428;2022-08-19T00:19:38;5.03;;;3.90;;
72115;SDS011;59991;52.140;5.428;2022-08-19T00:20:12;4.38;;;3.97;;
72115;SDS011;59991;52.140;5.428;2022-08-19T00:20:48;5.60;;;4.25;;
72115;SDS011;59991;52.140;5.428;2022-08-19T00:21:20;8.23;;;4.03;;
72115;SDS011;59991;52.140;5.428;2022-08-19T00:21:51;4.38;;;4.07;;
72115;SDS011;59991;52.140;5.428;2022-08-19T00:22:23;4.43;;;4.13;;
72115;SDS011;59991;52.140;5.428;2022-08-19T00:23:44;5.40;;;3.90;;
72115;SDS011;59991;52.140;5.428;2022-08-19T00:24:16;5.82;;;4.40;;
72115;SDS011;59991;52.140;5.428;2022-08-19T00:25:05;5.30;;;4.60;;
72115;SDS011;59991;52.140;5.428;2022-08-19T00:25:37;4.72;;;4.32;;
72115;SDS011;59991;52.140;5.428;2022-08-19T00:26:09;4.28;;;3.88;;
72115;SDS011;59991;52.140;5.428;2022-08-19T00:26:42;4.32;;;4.00;;
72115;SDS011;59991;52.140;5.428;2022-08-19T00:27:14;4.90;;;4.60;;
72115;SDS011;59991;52.140;5.428;2022-08-19T00:27:56;4.93;;;4.53;;
72115;SDS011;59991;52.140;5.428;2022-08-19T00:28:30;5.75;;;4.68;;
72115;SDS011;59991;52.140;5.428;2022-08-19T00:29:02;3.97;;;3.67;;
72115;SDS011;59991;52.140;5.428;2022-08-19T00:29:34;5.32;;;4.35;;
72115;SDS011;59991;52.140;5.428;2022-08-19T00:30:06;5.57;;;4.63;;
72115;SDS011;59991;52.140;5.428;2022-08-19T00:30:38;5.18;;;4.43;;
72115;SDS011;59991;52.140;5.428;2022-08-19T00:31:10;5.07;;;4.63;;
72115;SDS011;59991;52.140;5.428;2022-08-19T00:31:42;5.13;;;4.75;;
72115;SDS011;59991;52.140;5.428;2022-08-19T00:32:14;4.32;;;4.03;;
72115;SDS011;59991;52.140;5.428;2022-08-19T00:32:48;6.80;;;4.57;;
72115;SDS011;59991;52.140;5.428;2022-08-19T00:33:20;6.03;;;4.75;;
72115;SDS011;59991;52.140;5.428;2022-08-19T00:34:11;6.55;;;4.55;;
72115;SDS011;59991;52.140;5.428;2022-08-19T00:34:43;4.83;;;4.43;;
72115;SDS011;59991;52.140;5.428;2022-08-19T00:35:14;4.47;;;4.18;;
72115;SDS011;59991;52.140;5.428;2022-08-19T00:35:46;4.65;;;4.35;;
72115;SDS011;59991;52.140;5.428;2022-08-19T00:36:26;4.97;;;4.10;;
72115;SDS011;59991;52.140;5.428;2022-08-19T00:36:59;4.57;;;4.25;;
72115;SDS011;59991;52.140;5.428;2022-08-19T00:37:30;5.18;;;4.78;;
72115;SDS011;59991;52.140;5.428;2022-08-19T00:38:02;4.72;;;4.32;;
72115;SDS011;59991;52.140;5.428;2022-08-19T00:38:34;5.07;;;4.53;;
72115;SDS011;59991;52.140;5.428;2022-08-19T00:39:08;4.68;;;4.38;;
72115;SDS011;59991;52.140;5.428;2022-08-19T00:39:40;4.82;;;4.28;;
72115;SDS011;59991;52.140;5.428;2022-08-19T00:40:30;5.00;;;4.60;;
72115;SDS011;59991;52.140;5.428;2022-08-19T00:41:02;4.90;;;4.50;;
72115;SDS011;59991;52.140;5.428;2022-08-19T00:41:33;5.32;;;4.93;;
72115;SDS011;59991;52.140;5.428;2022-08-19T00:42:22;6.07;;;5.47;;
72115;SDS011;59991;52.140;5.428;2022-08-19T00:42:54;4.63;;;4.22;;
72115;SDS011;59991;52.140;5.428;2022-08-19T00:43:26;4.88;;;4.07;;
72115;SDS011;59991;52.140;5.428;2022-08-19T00:44:21;5.07;;;4.68;;
72115;SDS011;59991;52.140;5.428;2022-08-19T00:44:57;5.57;;;4.82;;
72115;SDS011;59991;52.140;5.428;2022-08-19T00:45:28;5.88;;;5.32;;
72115;SDS011;59991;52.140;5.428;2022-08-19T00:46:06;4.97;;;4.53;;
72115;SDS011;59991;52.140;5.428;2022-08-19T00:46:39;5.60;;;5.20;;
72115;SDS011;59991;52.140;5.428;2022-08-19T00:47:13;4.72;;;4.32;;
72115;SDS011;59991;52.140;5.428;2022-08-19T00:47:46;5.30;;;4.88;;
72115;SDS011;59991;52.140;5.428;2022-08-19T00:48:18;5.68;;;5.18;;
72115;SDS011;59991;52.140;5.428;2022-08-19T00:48:51;5.40;;;5.00;;
72115;SDS011;59991;52.140;5.428;2022-08-19T00:49:25;5.32;;;4.88;;
72115;SDS011;59991;52.140;5.428;2022-08-19T00:50:02;4.93;;;4.40;;
72115;SDS011;59991;52.140;5.428;2022-08-19T00:50:34;4.57;;;4.18;;
72115;SDS011;59991;52.140;5.428;2022-08-19T00:51:22;5.43;;;4.95;;
72115;SDS011;59991;52.140;5.428;2022-08-19T00:52:14;5.32;;;4.90;;
72115;SDS011;59991;52.140;5.428;2022-08-19T00:53:08;4.97;;;4.40;;
72115;SDS011;59991;52.140;5.428;2022-08-19T00:53:41;4.85;;;4.40;;
72115;SDS011;59991;52.140;5.428;2022-08-19T00:54:14;5.10;;;4.70;;
72115;SDS011;59991;52.140;5.428;2022-08-19T00:54:46;4.93;;;4.53;;
72115;SDS011;59991;52.140;5.428;2022-08-19T00:55:24;5.45;;;4.95;;
72115;SDS011;59991;52.140;5.428;2022-08-19T00:56:14;5.53;;;5.13;;
72115;SDS011;59991;52.140;5.428;2022-08-19T00:56:46;5.97;;;4.72;;
72115;SDS011;59991;52.140;5.428;2022-08-19T00:57:26;5.10;;;4.60;;
72115;SDS011;59991;52.140;5.428;2022-08-19T00:58:02;6.60;;;4.88;;
72115;SDS011;59991;52.140;5.428;2022-08-19T00:58:38;5.20;;;4.70;;
72115;SDS011;59991;52.140;5.428;2022-08-19T00:59:10;4.33;;;4.03;;
72115;SDS011;59991;52.140;5.428;2022-08-19T00:59:43;5.63;;;5.07;;
72115;SDS011;59991;52.140;5.428;2022-08-19T01:00:32;4.68;;;4.10;;
72115;SDS011;59991;52.140;5.428;2022-08-19T01:01:06;4.68;;;4.28;;
72115;SDS011;59991;52.140;5.428;2022-08-19T01:01:39;5.70;;;4.68;;
72115;SDS011;59991;52.140;5.428;2022-08-19T01:02:14;5.07;;;4.55;;
72115;SDS011;59991;52.140;5.428;2022-08-19T01:02:46;7.32;;;4.50;;
72115;SDS011;59991;52.140;5.428;2022-08-19T01:03:19;4.93;;;4.55;;
72115;SDS011;59991;52.140;5.428;2022-08-19T01:03:52;5.65;;;5.05;;
72115;SDS011;59991;52.140;5.428;2022-08-19T01:04:41;4.82;;;4.10;;
72115;SDS011;59991;52.140;5.428;2022-08-19T01:05:17;4.13;;;3.83;;
72115;SDS011;59991;52.140;5.428;2022-08-19T01:05:52;5.18;;;4.68;;
72115;SDS011;59991;52.140;5.428;2022-08-19T01:06:50;4.68;;;4.25;;
72115;SDS011;59991;52.140;5.428;2022-08-19T01:07:21;5.70;;;5.15;;
72115;SDS011;59991;52.140;5.428;2022-08-19T01:07:54;4.38;;;3.80;;
72115;SDS011;59991;52.140;5.428;2022-08-19T01:08:27;4.22;;;3.80;;
72115;SDS011;59991;52.140;5.428;2022-08-19T01:08:59;4.78;;;4.07;;
72115;SDS011;59991;52.140;5.428;2022-08-19T01:09:30;4.88;;;4.28;;
72115;SDS011;59991;52.140;5.428;2022-08-19T01:10:03;7.32;;;4.38;;
72115;SDS011;59991;52.140;5.428;2022-08-19T01:10:37;5.43;;;4.25;;
72115;SDS011;59991;52.140;5.428;2022-08-19T01:11:12;5.03;;;3.90;;
72115;SDS011;59991;52.140;5.428;2022-08-19T01:11:44;4.85;;;4.38;;
72115;SDS011;59991;52.140;5.428;2022-08-19T01:12:16;4.65;;;4.25;;
72115;SDS011;59991;52.140;5.428;2022-08-19T01:12:48;5.05;;;4.63;;
72115;SDS011;59991;52.140;5.428;2022-08-19T01:13:25;4.50;;;4.18;;
72115;SDS011;59991;52.140;5.428;2022-08-19T01:14:19;5.57;;;5.03;;
72115;SDS011;59991;52.140;5.428;2022-08-19T01:14:50;4.65;;;4.25;;
72115;SDS011;59991;52.140;5.428;2022-08-19T01:15:24;4.90;;;4.50;;
72115;SDS011;59991;52.140;5.428;2022-08-19T01:16:07;5.55;;;4.90;;
72115;SDS011;59991;52.140;5.428;2022-08-19T01:17:31;4.87;;;4.43;;
72115;SDS011;59991;52.140;5.428;2022-08-19T01:18:04;6.22;;;4.22;;
72115;SDS011;59991;52.140;5.428;2022-08-19T01:18:41;4.45;;;4.05;;
72115;SDS011;59991;52.140;5.428;2022-08-19T01:19:26;5.22;;;4.50;;
72115;SDS011;59991;52.140;5.428;2022-08-19T01:20:00;4.75;;;4.35;;
72115;SDS011;59991;52.140;5.428;2022-08-19T01:20:31;4.38;;;3.97;;
72115;SDS011;59991;52.140;5.428;2022-08-19T01:21:26;4.65;;;4.15;;
72115;SDS011;59991;52.140;5.428;2022-08-19T01:22:06;6.75;;;4.15;;
72115;SDS011;59991;52.140;5.428;2022-08-19T01:22:48;5.05;;;4.57;;
72115;SDS011;59991;52.140;5.428;2022-08-19T01:23:40;4.63;;;4.22;;
72115;SDS011;59991;52.140;5.428;2022-08-19T01:24:14;5.00;;;4.70;;
72115;SDS011;59991;52.140;5.428;2022-08-19T01:24:46;5.75;;;3.78;;
72115;SDS011;59991;52.140;5.428;2022-08-19T01:25:23;8.73;;;4.78;;
72115;SDS011;59991;52.140;5.428;2022-08-19T01:25:59;6.90;;;5.25;;
72115;SDS011;59991;52.140;5.428;2022-08-19T01:26:30;5.43;;;5.03;;
72115;SDS011;59991;52.140;5.428;2022-08-19T01:27:54;4.60;;;4.18;;
72115;SDS011;59991;52.140;5.428;2022-08-19T01:28:36;4.35;;;4.05;;
72115;SDS011;59991;52.140;5.428;2022-08-19T01:29:31;4.68;;;4.10;;
72115;SDS011;59991;52.140;5.428;2022-08-19T01:30:03;6.50;;;4.00;;
72115;SDS011;59991;52.140;5.428;2022-08-19T01:30:36;3.90;;;3.53;;
72115;SDS011;59991;52.140;5.428;2022-08-19T01:31:10;3.80;;;3.50;;
72115;SDS011;59991;52.140;5.428;2022-08-19T01:31:58;4.90;;;4.00;;
72115;SDS011;59991;52.140;5.428;2022-08-19T01:32:31;5.70;;;5.30;;
72115;SDS011;59991;52.140;5.428;2022-08-19T01:33:04;4.47;;;4.15;;
72115;SDS011;59991;52.140;5.428;2022-08-19T01:33:55;4.55;;;3.63;;
72115;SDS011;59991;52.140;5.428;2022-08-19T01:34:28;4.65;;;4.25;;
72115;SDS011;59991;52.140;5.428;2022-08-19T01:34:59;4.70;;;4.30;;
72115;SDS011;59991;52.140;5.428;2022-08-19T01:35:33;4.50;;;4.18;;
72115;SDS011;59991;52.140;5.428;2022-08-19T01:36:07;4.28;;;3.97;;
72115;SDS011;59991;52.140;5.428;2022-08-19T01:36:44;4.13;;;3.40;;
72115;SDS011;59991;52.140;5.428;2022-08-19T01:37:18;4.35;;;3.92;;
72115;SDS011;59991;52.140;5.428;2022-08-19T01:38:09;4.32;;;3.88;;
72115;SDS011;59991;52.140;5.428;2022-08-19T01:38:49;3.90;;;3.60;;
72115;SDS011;59991;52.140;5.428;2022-08-19T01:39:40;4.03;;;3.63;;
72115;SDS011;59991;52.140;5.428;2022-08-19T01:40:11;5.25;;;3.75;;
72115;SDS011;59991;52.140;5.428;2022-08-19T01:40:43;4.65;;;3.80;;
72115;SDS011;59991;52.140;5.428;2022-08-19T01:41:15;5.28;;;4.78;;
72115;SDS011;59991;52.140;5.428;2022-08-19T01:41:48;5.32;;;4.28;;
72115;SDS011;59991;52.140;5.428;2022-08-19T01:42:20;4.43;;;4.10;;
72115;SDS011;59991;52.140;5.428;2022-08-19T01:43:00;4.43;;;4.13;;
72115;SDS011;59991;52.140;5.428;2022-08-19T01:43:34;4.30;;;3.70;;
72115;SDS011;59991;52.140;5.428;2022-08-19T01:44:05;6.00;;;4.05;;
72115;SDS011;59991;52.140;5.428;2022-08-19T01:45:39;5.15;;;4.15;;
72115;SDS011;59991;52.140;5.428;2022-08-19T01:46:30;4.25;;;3.95;;
72115;SDS011;59991;52.140;5.428;2022-08-19T01:47:20;4.60;;;4.20;;
72115;SDS011;59991;52.140;5.428;2022-08-19T01:47:51;3.90;;;3.60;;
72115;SDS011;59991;52.140;5.428;2022-08-19T01:48:42;6.40;;;4.18;;
72115;SDS011;59991;52.140;5.428;2022-08-19T01:49:32;4.45;;;3.80;;
72115;SDS011;59991;52.140;5.428;2022-08-19T01:50:04;5.60;;;4.00;;
72115;SDS011;59991;52.140;5.428;2022-08-19T01:50:38;4.55;;;4.15;;
72115;SDS011;59991;52.140;5.428;2022-08-19T01:51:10;4.90;;;4.40;;
72115;SDS011;59991;52.140;5.428;2022-08-19T01:52:00;4.13;;;3.83;;
72115;SDS011;59991;52.140;5.428;2022-08-19T01:52:31;6.13;;;4.20;;
72115;SDS011;59991;52.140;5.428;2022-08-19T01:53:07;3.92;;;3.63;;
72115;SDS011;59991;52.140;5.428;2022-08-19T01:53:41;4.32;;;3.92;;
72115;SDS011;59991;52.140;5.428;2022-08-19T01:54:15;6.10;;;4.45;;
72115;SDS011;59991;52.140;5.428;2022-08-19T01:54:57;4.95;;;4.63;;
72115;SDS011;59991;52.140;5.428;2022-08-19T01:55:29;4.85;;;4.43;;
72115;SDS011;59991;52.140;5.428;2022-08-19T01:56:01;4.57;;;3.87;;
72115;SDS011;59991;52.140;5.428;2022-08-19T01:56:33;6.20;;;4.40;;
72115;SDS011;59991;52.140;5.428;2022-08-19T01:57:06;5.90;;;3.65;;
72115;SDS011;59991;52.140;5.428;2022-08-19T01:58:00;4.10;;;3.80;;
72115;SDS011;59991;52.140;5.428;2022-08-19T01:58:40;6.88;;;4.05;;
72115;SDS011;59991;52.140;5.428;2022-08-19T01:59:18;4.20;;;3.90;;
72115;SDS011;59991;52.140;5.428;2022-08-19T01:59:51;4.15;;;3.85;;
72115;SDS011;59991;52.140;5.428;2022-08-19T02:00:23;4.05;;;3.75;;
72115;SDS011;59991;52.140;5.428;2022-08-19T02:00:57;4.72;;;3.65;;
72115;SDS011;59991;52.140;5.428;2022-08-19T02:01:28;4.28;;;3.90;;
72115;SDS011;59991;52.140;5.428;2022-08-19T02:02:04;5.23;;;3.90;;
72115;SDS011;59991;52.140;5.428;2022-08-19T02:02:38;5.07;;;3.17;;
72115;SDS011;59991;52.140;5.428;2022-08-19T02:03:14;4.63;;;3.53;;
72115;SDS011;59991;52.140;5.428;2022-08-19T02:04:36;3.92;;;3.63;;
72115;SDS011;59991;52.140;5.428;2022-08-19T02:05:09;3.85;;;3.47;;
72115;SDS011;59991;52.140;5.428;2022-08-19T02:05:42;4.03;;;3.63;;
72115;SDS011;59991;52.140;5.428;2022-08-19T02:06:14;3.58;;;3.28;;
72115;SDS011;59991;52.140;5.428;2022-08-19T02:06:47;4.15;;;3.50;;
72115;SDS011;59991;52.140;5.428;2022-08-19T02:07:20;4.10;;;3.70;;
72115;SDS011;59991;52.140;5.428;2022-08-19T02:08:10;6.40;;;3.63;;
72115;SDS011;59991;52.140;5.428;2022-08-19T02:08:42;4.07;;;3.25;;
72115;SDS011;59991;52.140;5.428;2022-08-19T02:09:17;3.63;;;3.33;;
72115;SDS011;59991;52.140;5.428;2022-08-19T02:09:49;5.18;;;3.80;;
72115;SDS011;59991;52.140;5.428;2022-08-19T02:10:21;3.40;;;3.10;;
72115;SDS011;59991;52.140;5.428;2022-08-19T02:11:18;5.20;;;3.50;;
72115;SDS011;59991;52.140;5.428;2022-08-19T02:11:52;4.00;;;3.75;;
72115;SDS011;59991;52.140;5.428;2022-08-19T02:12:24;4.00;;;3.70;;
72115;SDS011;59991;52.140;5.428;2022-08-19T02:12:56;4.63;;;4.15;;
72115;SDS011;59991;52.140;5.428;2022-08-19T02:13:27;5.35;;;3.88;;
72115;SDS011;59991;52.140;5.428;2022-08-19T02:13:59;3.80;;;3.50;;
72115;SDS011;59991;52.140;5.428;2022-08-19T02:14:36;4.40;;;4.00;;
72115;SDS011;59991;52.140;5.428;2022-08-19T02:15:08;4.30;;;3.90;;
72115;SDS011;59991;52.140;5.428;2022-08-19T02:15:39;4.30;;;3.90;;
72115;SDS011;59991;52.140;5.428;2022-08-19T02:16:11;4.07;;;3.67;;
72115;SDS011;59991;52.140;5.428;2022-08-19T02:16:43;3.58;;;3.28;;
72115;SDS011;59991;52.140;5.428;2022-08-19T02:17:32;3.50;;;3.20;;
72115;SDS011;59991;52.140;5.428;2022-08-19T02:18:24;4.53;;;4.22;;
72115;SDS011;59991;52.140;5.428;2022-08-19T02:18:58;4.55;;;3.67;;
72115;SDS011;59991;52.140;5.428;2022-08-19T02:19:32;4.22;;;3.90;;
72115;SDS011;59991;52.140;5.428;2022-08-19T02:20:04;4.53;;;3.50;;
72115;SDS011;59991;52.140;5.428;2022-08-19T02:20:38;4.20;;;3.80;;
72115;SDS011;59991;52.140;5.428;2022-08-19T02:21:11;5.25;;;3.95;;
72115;SDS011;59991;52.140;5.428;2022-08-19T02:21:43;4.78;;;4.18;;
72115;SDS011;59991;52.140;5.428;2022-08-19T02:22:14;4.28;;;3.97;;
72115;SDS011;59991;52.140;5.428;2022-08-19T02:23:03;4.38;;;4.00;;
72115;SDS011;59991;52.140;5.428;2022-08-19T02:23:44;4.38;;;3.40;;
72115;SDS011;59991;52.140;5.428;2022-08-19T02:24:16;3.95;;;3.60;;
72115;SDS011;59991;52.140;5.428;2022-08-19T02:25:06;4.93;;;4.07;;
72115;SDS011;59991;52.140;5.428;2022-08-19T02:25:37;4.40;;;3.50;;
72115;SDS011;59991;52.140;5.428;2022-08-19T02:26:28;3.83;;;3.43;;
72115;SDS011;59991;52.140;5.428;2022-08-19T02:26:59;4.22;;;3.83;;
72115;SDS011;59991;52.140;5.428;2022-08-19T02:27:30;4.38;;;4.00;;
72115;SDS011;59991;52.140;5.428;2022-08-19T02:28:02;6.13;;;4.38;;
72115;SDS011;59991;52.140;5.428;2022-08-19T02:28:34;5.10;;;4.32;;
72115;SDS011;59991;52.140;5.428;2022-08-19T02:29:05;4.50;;;4.10;;
72115;SDS011;59991;52.140;5.428;2022-08-19T02:29:36;4.35;;;4.05;;
72115;SDS011;59991;52.140;5.428;2022-08-19T02:30:09;6.28;;;4.25;;
72115;SDS011;59991;52.140;5.428;2022-08-19T02:30:44;4.13;;;3.80;;
72115;SDS011;59991;52.140;5.428;2022-08-19T02:31:18;3.67;;;3.38;;
72115;SDS011;59991;52.140;5.428;2022-08-19T02:31:51;4.50;;;4.10;;
72115;SDS011;59991;52.140;5.428;2022-08-19T02:32:22;5.18;;;3.95;;
72115;SDS011;59991;52.140;5.428;2022-08-19T02:32:54;4.45;;;4.05;;
72115;SDS011;59991;52.140;5.428;2022-08-19T02:33:25;5.00;;;4.40;;
72115;SDS011;59991;52.140;5.428;2022-08-19T02:33:57;4.25;;;3.95;;
72115;SDS011;59991;52.140;5.428;2022-08-19T02:34:29;4.50;;;4.10;;
72115;SDS011;59991;52.140;5.428;2022-08-19T02:35:00;5.80;;;3.90;;
72115;SDS011;59991;52.140;5.428;2022-08-19T02:35:43;6.00;;;4.20;;
72115;SDS011;59991;52.140;5.428;2022-08-19T02:36:15;5.40;;;3.90;;
72115;SDS011;59991;52.140;5.428;2022-08-19T02:36:51;3.95;;;3.65;;
72115;SDS011;59991;52.140;5.428;2022-08-19T02:37:23;7.13;;;3.70;;
72115;SDS011;59991;52.140;5.428;2022-08-19T02:38:13;5.07;;;3.75;;
72115;SDS011;59991;52.140;5.428;2022-08-19T02:39:14;5.25;;;3.97;;
72115;SDS011;59991;52.140;5.428;2022-08-19T02:40:48;6.13;;;3.85;;
72115;SDS011;59991;52.140;5.428;2022-08-19T02:41:38;6.07;;;3.70;;
72115;SDS011;59991;52.140;5.428;2022-08-19T02:42:09;5.05;;;3.72;;
72115;SDS011;59991;52.140;5.428;2022-08-19T02:42:41;6.28;;;4.05;;
72115;SDS011;59991;52.140;5.428;2022-08-19T02:43:13;4.57;;;3.95;;
72115;SDS011;59991;52.140;5.428;2022-08-19T02:44:03;4.90;;;3.38;;
72115;SDS011;59991;52.140;5.428;2022-08-19T02:44:55;4.20;;;3.80;;
72115;SDS011;59991;52.140;5.428;2022-08-19T02:45:30;4.32;;;3.53;;
72115;SDS011;59991;52.140;5.428;2022-08-19T02:46:23;3.75;;;3.22;;
72115;SDS011;59991;52.140;5.428;2022-08-19T02:46:57;4.35;;;3.63;;
72115;SDS011;59991;52.140;5.428;2022-08-19T02:47:29;7.32;;;3.72;;
72115;SDS011;59991;52.140;5.428;2022-08-19T02:48:01;5.70;;;3.78;;
72115;SDS011;59991;52.140;5.428;2022-08-19T02:48:42;3.85;;;3.50;;
72115;SDS011;59991;52.140;5.428;2022-08-19T02:49:32;4.13;;;3.83;;
72115;SDS011;59991;52.140;5.428;2022-08-19T02:50:05;4.72;;;3.55;;
72115;SDS011;59991;52.140;5.428;2022-08-19T02:50:38;3.88;;;3.55;;
72115;SDS011;59991;52.140;5.428;2022-08-19T02:51:15;3.90;;;3.60;;
72115;SDS011;59991;52.140;5.428;2022-08-19T02:51:47;6.35;;;3.50;;
72115;SDS011;59991;52.140;5.428;2022-08-19T02:52:18;8.18;;;3.63;;
72115;SDS011;59991;52.140;5.428;2022-08-19T02:52:50;6.10;;;3.50;;
72115;SDS011;59991;52.140;5.428;2022-08-19T02:53:22;4.78;;;3.67;;
72115;SDS011;59991;52.140;5.428;2022-08-19T02:53:55;4.32;;;3.90;;
72115;SDS011;59991;52.140;5.428;2022-08-19T02:54:27;5.03;;;3.60;;
72115;SDS011;59991;52.140;5.428;2022-08-19T02:55:50;4.65;;;4.07;;
72115;SDS011;59991;52.140;5.428;2022-08-19T02:56:22;4.13;;;3.28;;
72115;SDS011;59991;52.140;5.428;2022-08-19T02:56:55;3.90;;;3.33;;
72115;SDS011;59991;52.140;5.428;2022-08-19T02:57:27;4.28;;;3.90;;
72115;SDS011;59991;52.140;5.428;2022-08-19T02:57:59;5.70;;;3.95;;
72115;SDS011;59991;52.140;5.428;2022-08-19T02:58:31;5.25;;;4.22;;
72115;SDS011;59991;52.140;5.428;2022-08-19T02:59:02;4.00;;;3.70;;
72115;SDS011;59991;52.140;5.428;2022-08-19T02:59:42;4.85;;;3.90;;
72115;SDS011;59991;52.140;5.428;2022-08-19T03:00:13;3.58;;;3.28;;
72115;SDS011;59991;52.140;5.428;2022-08-19T03:00:46;4.60;;;3.75;;
72115;SDS011;59991;52.140;5.428;2022-08-19T03:01:31;4.35;;;3.95;;
72115;SDS011;59991;52.140;5.428;2022-08-19T03:02:03;5.90;;;3.53;;
72115;SDS011;59991;52.140;5.428;2022-08-19T03:02:34;5.40;;;4.00;;
72115;SDS011;59991;52.140;5.428;2022-08-19T03:03:06;3.80;;;3.50;;
72115;SDS011;59991;52.140;5.428;2022-08-19T03:03:37;4.65;;;3.83;;
72115;SDS011;59991;52.140;5.428;2022-08-19T03:04:10;7.22;;;4.07;;
72115;SDS011;59991;52.140;5.428;2022-08-19T03:04:43;4.40;;;4.10;;
72115;SDS011;59991;52.140;5.428;2022-08-19T03:05:14;4.30;;;3.58;;
72115;SDS011;59991;52.140;5.428;2022-08-19T03:05:45;3.50;;;3.20;;
72115;SDS011;59991;52.140;5.428;2022-08-19T03:06:27;4.88;;;4.28;;
72115;SDS011;59991;52.140;5.428;2022-08-19T03:06:58;6.50;;;3.75;;
72115;SDS011;59991;52.140;5.428;2022-08-19T03:07:41;4.22;;;3.83;;
72115;SDS011;59991;52.140;5.428;2022-08-19T03:08:12;4.53;;;4.13;;
72115;SDS011;59991;52.140;5.428;2022-08-19T03:09:03;4.22;;;3.83;;
72115;SDS011;59991;52.140;5.428;2022-08-19T03:09:36;4.35;;;4.00;;
72115;SDS011;59991;52.140;5.428;2022-08-19T03:10:08;4.75;;;4.25;;
72115;SDS011;59991;52.140;5.428;2022-08-19T03:10:41;4.80;;;4.05;;
72115;SDS011;59991;52.140;5.428;2022-08-19T03:11:16;4.60;;;4.20;;
72115;SDS011;59991;52.140;5.428;2022-08-19T03:11:52;6.30;;;4.18;;
72115;SDS011;59991;52.140;5.428;2022-08-19T03:13:15;6.00;;;5.47;;
72115;SDS011;59991;52.140;5.428;2022-08-19T03:13:48;5.30;;;4.80;;
72115;SDS011;59991;52.140;5.428;2022-08-19T03:14:21;5.17;;;4.77;;
72115;SDS011;59991;52.140;5.428;2022-08-19T03:14:54;5.57;;;4.45;;
72115;SDS011;59991;52.140;5.428;2022-08-19T03:15:25;5.70;;;5.20;;
72115;SDS011;59991;52.140;5.428;2022-08-19T03:15:57;5.88;;;5.47;;
72115;SDS011;59991;52.140;5.428;2022-08-19T03:16:29;5.50;;;5.00;;
72115;SDS011;59991;52.140;5.428;2022-08-19T03:17:04;7.30;;;5.20;;
72115;SDS011;59991;52.140;5.428;2022-08-19T03:17:35;5.45;;;4.60;;
72115;SDS011;59991;52.140;5.428;2022-08-19T03:18:07;4.85;;;4.45;;
72115;SDS011;59991;52.140;5.428;2022-08-19T03:18:40;7.25;;;6.50;;
72115;SDS011;59991;52.140;5.428;2022-08-19T03:19:11;5.20;;;4.80;;
72115;SDS011;59991;52.140;5.428;2022-08-19T03:19:44;5.13;;;4.63;;
72115;SDS011;59991;52.140;5.428;2022-08-19T03:20:15;5.45;;;4.85;;
72115;SDS011;59991;52.140;5.428;2022-08-19T03:20:48;6.07;;;4.93;;
72115;SDS011;59991;52.140;5.428;2022-08-19T03:21:21;5.03;;;4.68;;
72115;SDS011;59991;52.140;5.428;2022-08-19T03:21:54;5.32;;;4.25;;
72115;SDS011;59991;52.140;5.428;2022-08-19T03:22:26;7.15;;;4.72;;
72115;SDS011;59991;52.140;5.428;2022-08-19T03:22:58;4.78;;;4.43;;
72115;SDS011;59991;52.140;5.428;2022-08-19T03:23:29;5.85;;;5.30;;
72115;SDS011;59991;52.140;5.428;2022-08-19T03:24:01;5.63;;;5.15;;
72115;SDS011;59991;52.140;5.428;2022-08-19T03:24:37;5.05;;;4.63;;
72115;SDS011;59991;52.140;5.428;2022-08-19T03:25:09;4.60;;;4.30;;
72115;SDS011;59991;52.140;5.428;2022-08-19T03:25:44;7.72;;;5.45;;
72115;SDS011;59991;52.140;5.428;2022-08-19T03:26:29;5.32;;;4.38;;
72115;SDS011;59991;52.140;5.428;2022-08-19T03:27:01;5.88;;;5.38;;
72115;SDS011;59991;52.140;5.428;2022-08-19T03:27:35;6.18;;;5.00;;
72115;SDS011;59991;52.140;5.428;2022-08-19T03:28:06;6.88;;;4.43;;
72115;SDS011;59991;52.140;5.428;2022-08-19T03:28:38;5.65;;;4.97;;
72115;SDS011;59991;52.140;5.428;2022-08-19T03:29:10;5.57;;;5.05;;
72115;SDS011;59991;52.140;5.428;2022-08-19T03:29:43;5.05;;;4.70;;
72115;SDS011;59991;52.140;5.428;2022-08-19T03:30:15;5.55;;;4.60;;
72115;SDS011;59991;52.140;5.428;2022-08-19T03:30:57;4.60;;;4.20;;
72115;SDS011;59991;52.140;5.428;2022-08-19T03:31:50;4.82;;;4.43;;
72115;SDS011;59991;52.140;5.428;2022-08-19T03:32:23;5.15;;;4.68;;
72115;SDS011;59991;52.140;5.428;2022-08-19T03:33:02;7.70;;;4.90;;
72115;SDS011;59991;52.140;5.428;2022-08-19T03:33:35;6.28;;;5.40;;
72115;SDS011;59991;52.140;5.428;2022-08-19T03:34:07;6.35;;;5.30;;
72115;SDS011;59991;52.140;5.428;2022-08-19T03:34:40;9.07;;;5.95;;
72115;SDS011;59991;52.140;5.428;2022-08-19T03:35:11;9.60;;;6.15;;
72115;SDS011;59991;52.140;5.428;2022-08-19T03:35:43;5.72;;;5.20;;
72115;SDS011;59991;52.140;5.428;2022-08-19T03:36:18;6.22;;;5.65;;
72115;SDS011;59991;52.140;5.428;2022-08-19T03:36:57;5.90;;;5.33;;
72115;SDS011;59991;52.140;5.428;2022-08-19T03:37:31;6.35;;;5.85;;
72115;SDS011;59991;52.140;5.428;2022-08-19T03:38:04;6.13;;;5.00;;
72115;SDS011;59991;52.140;5.428;2022-08-19T03:38:38;6.80;;;6.20;;
72115;SDS011;59991;52.140;5.428;2022-08-19T03:39:12;9.95;;;6.15;;
72115;SDS011;59991;52.140;5.428;2022-08-19T03:39:43;8.90;;;6.60;;
72115;SDS011;59991;52.140;5.428;2022-08-19T03:40:15;7.40;;;6.70;;
72115;SDS011;59991;52.140;5.428;2022-08-19T03:40:47;7.30;;;6.60;;
72115;SDS011;59991;52.140;5.428;2022-08-19T03:41:39;11.00;;;7.13;;
72115;SDS011;59991;52.140;5.428;2022-08-19T03:42:16;6.75;;;6.15;;
72115;SDS011;59991;52.140;5.428;2022-08-19T03:43:19;7.17;;;6.47;;
72115;SDS011;59991;52.140;5.428;2022-08-19T03:43:51;7.07;;;6.50;;